createdAt,value
2018-04-15T00:01:12.728Z,10.57
2018-04-15T00:03:39.921Z,5.67
2018-04-15T00:06:07.173Z,8.00
2018-04-15T00:08:34.369Z,6.60
2018-04-15T00:11:01.779Z,10.90
2018-04-15T00:13:28.981Z,5.83
2018-04-15T00:15:56.167Z,7.20
2018-04-15T00:18:23.660Z,7.00
2018-04-15T00:20:50.604Z,6.30
2018-04-15T00:23:17.813Z,6.07
2018-04-15T00:25:44.993Z,5.80
2018-04-15T00:28:12.186Z,8.37
2018-04-15T00:30:39.698Z,6.60
2018-04-15T00:33:06.887Z,6.53
2018-04-15T00:35:34.107Z,15.40
2018-04-15T00:38:01.300Z,9.33
2018-04-15T00:40:28.247Z,7.23
2018-04-15T00:42:55.432Z,6.43
2018-04-15T00:45:22.625Z,7.70
2018-04-15T00:47:49.810Z,7.20
2018-04-15T00:50:16.996Z,6.00
2018-04-15T00:52:44.219Z,15.33
2018-04-15T00:55:11.435Z,14.73
2018-04-15T00:57:38.625Z,8.23
2018-04-15T01:00:06.093Z,6.87
2018-04-15T01:02:33.594Z,10.30
2018-04-15T01:05:01.069Z,5.20
2018-04-15T01:07:28.557Z,5.03
2018-04-15T01:09:56.043Z,7.40
2018-04-15T01:12:23.526Z,5.55
2018-04-15T01:14:51.003Z,5.50
2018-04-15T01:17:18.678Z,9.40
2018-04-15T01:19:46.261Z,8.10
2018-04-15T01:22:13.739Z,7.62
2018-04-15T01:24:41.205Z,8.40
2018-04-15T01:27:08.682Z,6.30
2018-04-15T01:29:36.174Z,6.60
2018-04-15T01:32:03.649Z,7.22
2018-04-15T01:34:31.151Z,10.00
2018-04-15T01:36:59.321Z,7.93
2018-04-15T01:39:26.817Z,9.50
2018-04-15T01:41:54.294Z,6.60
2018-04-15T01:44:21.770Z,7.75
2018-04-15T01:46:49.245Z,6.87
2018-04-15T01:49:16.719Z,10.38
2018-04-15T01:51:43.996Z,12.75
2018-04-15T01:54:11.462Z,8.38
2018-04-15T01:56:38.954Z,6.40
2018-04-15T01:59:06.143Z,7.57
2018-04-15T02:01:33.642Z,7.95
2018-04-15T02:04:01.127Z,6.00
2018-04-15T02:06:28.325Z,12.90
2018-04-15T02:08:55.513Z,9.37
2018-04-15T02:11:22.991Z,11.88
2018-04-15T02:13:50.249Z,6.95
2018-04-15T02:16:17.509Z,7.70
2018-04-15T02:18:44.971Z,9.05
2018-04-15T02:21:12.456Z,13.73
2018-04-15T02:23:39.935Z,5.75
2018-04-15T02:26:07.431Z,8.38
2018-04-15T02:28:34.919Z,15.10
2018-04-15T02:31:02.506Z,10.00
2018-04-15T02:33:30.003Z,10.52
2018-04-15T02:35:57.470Z,6.22
2018-04-15T02:38:24.950Z,4.43
2018-04-15T02:40:52.422Z,5.00
2018-04-15T02:43:19.913Z,6.53
2018-04-15T02:45:47.393Z,5.22
2018-04-15T02:48:14.883Z,5.72
2018-04-15T02:50:42.372Z,6.65
2018-04-15T02:53:09.886Z,7.57
2018-04-15T02:55:37.530Z,4.20
2018-04-15T02:58:05.026Z,7.32
2018-04-15T03:00:32.514Z,6.82
2018-04-15T03:02:59.993Z,7.95
2018-04-15T03:05:27.478Z,12.68
2018-04-15T03:07:54.959Z,4.20
2018-04-15T03:10:22.223Z,4.62
2018-04-15T03:12:49.691Z,7.78
2018-04-15T03:15:17.188Z,4.82
2018-04-15T03:17:44.686Z,4.10
2018-04-15T03:20:12.153Z,4.22
2018-04-15T03:22:39.661Z,4.12
2018-04-15T03:25:07.138Z,3.70
2018-04-15T03:27:34.628Z,4.10
2018-04-15T03:30:02.094Z,9.25
2018-04-15T03:32:29.599Z,6.37
2018-04-15T03:34:57.070Z,5.43
2018-04-15T03:37:24.541Z,2.80
2018-04-15T03:39:52.027Z,3.67
2018-04-15T03:42:19.494Z,3.60
2018-04-15T03:44:46.982Z,3.50
2018-04-15T03:47:14.457Z,4.45
2018-04-15T03:49:41.936Z,4.37
2018-04-15T03:52:09.441Z,3.80
2018-04-15T03:54:36.911Z,5.30
2018-04-15T03:57:04.139Z,4.32
2018-04-15T03:59:31.613Z,3.30
2018-04-15T04:01:59.093Z,7.45
2018-04-15T04:04:26.614Z,4.82
2018-04-15T04:06:54.085Z,4.10
2018-04-15T04:09:21.586Z,3.87
2018-04-15T04:11:49.069Z,4.97
2018-04-15T04:14:16.554Z,6.35
2018-04-15T04:16:44.034Z,3.53
2018-04-15T04:19:17.048Z,4.72
2018-04-15T04:21:50.262Z,5.80
2018-04-15T04:24:23.319Z,2.75
2018-04-15T04:26:50.794Z,2.80
2018-04-15T04:29:18.277Z,3.80
2018-04-15T04:31:45.758Z,3.62
2018-04-15T04:34:13.232Z,3.50
2018-04-15T04:36:40.716Z,5.93
2018-04-15T04:39:08.177Z,3.78
2018-04-15T04:41:35.666Z,6.70
2018-04-15T04:44:03.153Z,6.60
2018-04-15T04:46:30.623Z,3.55
2018-04-15T04:48:58.091Z,3.05
2018-04-15T04:51:25.685Z,2.53
2018-04-15T04:53:53.175Z,4.07
2018-04-15T04:56:20.649Z,3.10
2018-04-15T04:58:48.127Z,2.70
2018-04-15T05:01:15.641Z,2.37
2018-04-15T05:03:43.110Z,2.85
2018-04-15T05:06:10.597Z,3.47
2018-04-15T05:08:38.109Z,2.50
2018-04-15T05:11:05.619Z,2.65
2018-04-15T05:13:33.091Z,3.55
2018-04-15T05:16:00.567Z,3.42
2018-04-15T05:18:28.042Z,3.10
2018-04-15T05:20:55.517Z,2.45
2018-04-15T05:23:23.009Z,2.30
2018-04-15T05:25:50.478Z,4.03
2018-04-15T05:28:17.954Z,6.30
2018-04-15T05:30:45.442Z,3.58
2018-04-15T05:33:12.925Z,2.87
2018-04-15T05:35:40.400Z,3.05
2018-04-15T05:38:07.873Z,4.22
2018-04-15T05:40:35.362Z,2.30
2018-04-15T05:43:02.847Z,2.33
2018-04-15T05:45:30.309Z,2.78
2018-04-15T05:47:57.800Z,1.92
2018-04-15T05:50:25.281Z,3.17
2018-04-15T05:52:52.759Z,2.50
2018-04-15T05:55:20.217Z,4.20
2018-04-15T05:57:47.690Z,3.15
2018-04-15T06:00:15.158Z,4.97
2018-04-15T06:02:42.658Z,3.90
2018-04-15T06:05:10.123Z,2.60
2018-04-15T06:07:37.609Z,11.02
2018-04-15T06:10:05.103Z,6.22
2018-04-15T06:12:32.578Z,5.97
2018-04-15T06:15:00.057Z,3.72
2018-04-15T06:17:27.533Z,3.60
2018-04-15T06:19:55.009Z,3.25
2018-04-15T06:22:22.477Z,3.55
2018-04-15T06:24:49.971Z,3.95
2018-04-15T06:27:17.442Z,3.53
2018-04-15T06:29:44.928Z,4.60
2018-04-15T06:32:12.406Z,4.28
2018-04-15T06:34:39.869Z,4.05
2018-04-15T06:37:07.358Z,3.60
2018-04-15T06:39:34.869Z,4.72
2018-04-15T06:42:02.349Z,3.15
2018-04-15T06:44:29.829Z,4.22
2018-04-15T06:46:57.330Z,3.10
2018-04-15T06:49:24.829Z,3.20
2018-04-15T06:51:52.063Z,4.55
2018-04-15T06:54:19.570Z,7.62
2018-04-15T06:56:47.043Z,3.42
2018-04-15T06:59:14.532Z,5.22
2018-04-15T07:01:41.994Z,2.78
2018-04-15T07:04:09.491Z,3.45
2018-04-15T07:06:36.954Z,2.60
2018-04-15T07:09:04.186Z,4.65
2018-04-15T07:11:31.667Z,3.37
2018-04-15T07:13:59.163Z,3.37
2018-04-15T07:16:26.360Z,2.70
2018-04-15T07:21:27.341Z,2.67
2018-04-15T07:23:54.538Z,3.33
2018-04-15T07:26:21.726Z,2.67
2018-04-15T07:28:48.914Z,3.30
2018-04-15T07:31:16.134Z,3.00
2018-04-15T07:33:43.351Z,2.40
2018-04-15T07:36:10.497Z,2.67
2018-04-15T07:38:37.681Z,7.10
2018-04-15T07:41:04.642Z,5.13
2018-04-15T07:43:31.845Z,6.50
2018-04-15T07:45:59.037Z,6.90
2018-04-15T07:48:26.249Z,3.53
2018-04-15T07:50:53.468Z,3.87
2018-04-15T07:53:20.657Z,4.10
2018-04-15T07:55:47.902Z,3.97
2018-04-15T07:58:15.090Z,5.40
2018-04-15T08:00:42.290Z,4.40
2018-04-15T08:03:09.500Z,4.80
2018-04-15T08:05:36.715Z,5.13
2018-04-15T08:08:03.926Z,4.30
2018-04-15T08:10:31.298Z,4.17
2018-04-15T08:12:58.526Z,3.70
2018-04-15T08:15:25.717Z,4.93
2018-04-15T08:17:52.936Z,4.53
2018-04-15T08:20:20.198Z,3.90
2018-04-15T08:22:47.195Z,7.70
2018-04-15T08:25:14.479Z,4.47
2018-04-15T08:27:41.815Z,5.00
2018-04-15T08:30:09.034Z,5.57
2018-04-15T08:32:36.218Z,6.80
2018-04-15T08:35:03.412Z,5.63
2018-04-15T08:37:30.623Z,5.93
2018-04-15T08:39:57.813Z,4.60
2018-04-15T08:42:25.027Z,4.93
2018-04-15T08:44:52.254Z,5.93
2018-04-15T08:47:23.875Z,5.17
2018-04-15T08:49:56.528Z,5.00
2018-04-15T08:52:23.717Z,8.17
2018-04-15T08:54:50.925Z,7.47
2018-04-15T08:57:18.128Z,4.50
2018-04-15T08:59:45.353Z,6.13
2018-04-15T09:02:12.564Z,4.70
2018-04-15T09:04:39.757Z,5.20
2018-04-15T09:07:07.028Z,7.60
2018-04-15T09:09:33.994Z,5.70
2018-04-15T09:12:01.241Z,6.17
2018-04-15T09:14:28.478Z,8.73
2018-04-15T09:16:55.683Z,5.60
2018-04-15T09:19:22.895Z,11.80
2018-04-15T09:21:50.113Z,5.50
2018-04-15T09:24:17.401Z,9.17
2018-04-15T09:26:44.618Z,6.67
2018-04-15T09:29:11.806Z,8.73
2018-04-15T09:31:38.996Z,8.50
2018-04-15T09:34:06.190Z,7.93
2018-04-15T09:36:33.390Z,6.17
2018-04-15T09:39:00.618Z,7.63
2018-04-15T09:41:27.995Z,8.67
2018-04-15T09:43:55.239Z,13.77
2018-04-15T09:46:22.446Z,8.13
2018-04-15T09:48:49.945Z,7.60
2018-04-15T09:51:17.150Z,7.67
2018-04-15T09:53:44.381Z,7.90
2018-04-15T09:56:11.594Z,8.57
2018-04-15T09:58:38.801Z,9.10
2018-04-15T10:01:05.785Z,7.80
2018-04-15T10:03:32.982Z,6.70
2018-04-15T10:06:00.179Z,9.03
2018-04-15T10:08:27.374Z,7.50
2018-04-15T10:10:54.629Z,5.40
2018-04-15T10:13:21.980Z,11.30
2018-04-15T10:15:49.206Z,6.90
2018-04-15T10:18:16.399Z,6.87
2018-04-15T10:20:43.630Z,7.73
2018-04-15T10:23:10.833Z,11.43
2018-04-15T10:25:38.032Z,7.90
2018-04-15T10:28:05.225Z,9.03
2018-04-15T10:30:32.201Z,7.30
2018-04-15T10:32:59.427Z,10.37
2018-04-15T10:35:26.620Z,7.93
2018-04-15T10:37:53.837Z,5.80
2018-04-15T10:40:21.026Z,7.73
2018-04-15T10:42:48.238Z,8.87
2018-04-15T10:45:15.453Z,9.27
2018-04-15T10:47:42.678Z,6.63
2018-04-15T10:50:10.094Z,5.00
2018-04-15T10:52:37.282Z,6.93
2018-04-15T10:55:04.494Z,8.60
2018-04-15T10:57:31.724Z,8.37
2018-04-15T10:59:58.946Z,10.83
2018-04-15T11:02:26.142Z,7.37
2018-04-15T11:04:53.371Z,6.67
2018-04-15T11:07:20.562Z,7.23
2018-04-15T11:09:47.790Z,11.50
2018-04-15T11:12:14.982Z,7.07
2018-04-15T11:14:42.204Z,5.63
2018-04-15T11:17:09.415Z,7.50
2018-04-15T11:19:36.610Z,9.07
2018-04-15T11:22:03.834Z,9.10
2018-04-15T11:24:31.107Z,5.43
2018-04-15T11:26:58.300Z,6.60
2018-04-15T11:29:25.578Z,6.53
2018-04-15T11:31:52.951Z,6.60
2018-04-15T11:34:20.165Z,8.00
2018-04-15T11:36:47.483Z,7.10
2018-04-15T11:39:14.811Z,7.60
2018-04-15T11:41:42.006Z,9.50
2018-04-15T11:44:09.193Z,8.73
2018-04-15T11:46:36.391Z,9.23
2018-04-15T11:49:03.591Z,9.10
2018-04-15T11:51:30.878Z,11.83
2018-04-15T11:53:58.269Z,11.40
2018-04-15T11:56:25.513Z,8.37
2018-04-15T11:58:52.706Z,7.90
2018-04-15T12:01:19.918Z,8.43
2018-04-15T12:03:47.113Z,10.67
2018-04-15T12:06:14.499Z,7.90
2018-04-15T12:08:41.699Z,6.33
2018-04-15T12:11:08.950Z,15.13
2018-04-15T12:13:36.150Z,7.53
2018-04-15T12:16:03.749Z,9.10
2018-04-15T12:18:30.962Z,12.30
2018-04-15T12:20:58.183Z,10.93
2018-04-15T12:23:25.417Z,7.67
2018-04-15T12:25:52.659Z,10.30
2018-04-15T12:28:19.865Z,9.47
2018-04-15T12:30:47.085Z,11.67
2018-04-15T12:33:14.287Z,12.00
2018-04-15T12:35:41.541Z,9.67
2018-04-15T12:38:08.929Z,14.23
2018-04-15T12:40:36.130Z,12.03
2018-04-15T12:43:03.336Z,10.10
2018-04-15T12:45:30.546Z,12.13
2018-04-15T12:47:57.789Z,10.30
2018-04-15T12:50:25.000Z,10.83
2018-04-15T12:52:52.213Z,13.67
2018-04-15T12:55:19.423Z,13.23
2018-04-15T12:57:46.767Z,14.17
2018-04-15T13:00:13.979Z,12.47
2018-04-15T13:02:41.212Z,14.27
2018-04-15T13:05:08.421Z,12.33
2018-04-15T13:07:35.624Z,18.30
2018-04-15T13:10:02.844Z,13.57
2018-04-15T13:12:30.082Z,15.23
2018-04-15T13:14:57.303Z,13.33
2018-04-15T13:17:24.506Z,14.40
2018-04-15T13:19:51.722Z,12.77
2018-04-15T13:22:18.950Z,16.50
2018-04-15T13:24:46.148Z,13.07
2018-04-15T13:27:13.406Z,21.00
2018-04-15T13:29:40.598Z,13.07
2018-04-15T13:32:07.844Z,16.67
2018-04-15T13:34:35.027Z,12.17
2018-04-15T13:37:02.308Z,14.23
2018-04-15T13:39:29.498Z,13.37
2018-04-15T13:41:56.682Z,14.33
2018-04-15T13:44:24.644Z,15.00
2018-04-15T13:46:51.842Z,13.90
2018-04-15T13:49:19.062Z,10.97
2018-04-15T13:51:46.274Z,14.23
2018-04-15T13:54:13.479Z,10.33
2018-04-15T13:56:40.666Z,14.30
2018-04-15T13:59:07.882Z,13.97
2018-04-15T14:01:35.080Z,13.97
2018-04-15T14:04:02.316Z,18.73
2018-04-15T14:06:29.531Z,18.63
2018-04-15T14:08:56.720Z,15.23
2018-04-15T14:11:23.965Z,21.93
2018-04-15T14:13:51.153Z,12.97
2018-04-15T14:16:18.354Z,14.47
2018-04-15T14:18:45.541Z,12.83
2018-04-15T14:21:12.526Z,25.17
2018-04-15T14:23:39.733Z,15.40
2018-04-15T14:26:06.973Z,14.77
2018-04-15T14:28:34.212Z,15.10
2018-04-15T14:31:01.395Z,11.67
2018-04-15T14:33:28.634Z,12.80
2018-04-15T14:35:55.844Z,20.77
2018-04-15T14:38:23.156Z,12.30
2018-04-15T14:40:50.360Z,11.13
2018-04-15T14:43:17.565Z,13.73
2018-04-15T14:45:44.771Z,16.17
2018-04-15T14:48:11.962Z,13.43
2018-04-15T14:50:39.170Z,18.07
2018-04-15T14:53:06.358Z,12.17
2018-04-15T14:55:33.589Z,20.00
2018-04-15T14:58:00.826Z,15.97
2018-04-15T15:00:28.080Z,26.23
2018-04-15T15:02:55.055Z,14.00
2018-04-15T15:05:22.052Z,14.53
2018-04-15T15:07:49.264Z,13.73
2018-04-15T15:10:16.240Z,12.43
2018-04-15T15:12:43.449Z,11.47
2018-04-15T15:15:10.728Z,14.10
2018-04-15T15:17:37.956Z,11.63
2018-04-15T15:20:05.200Z,11.07
2018-04-15T15:22:32.414Z,12.07
2018-04-15T15:24:59.713Z,9.93
2018-04-15T15:27:26.845Z,13.40
2018-04-15T15:29:55.090Z,10.10
2018-04-15T15:32:22.303Z,14.63
2018-04-15T15:34:49.504Z,16.83
2018-04-15T15:37:16.706Z,11.13
2018-04-15T15:39:43.897Z,9.50
2018-04-15T15:42:11.221Z,11.93
2018-04-15T15:44:38.568Z,10.20
2018-04-15T15:47:05.757Z,10.53
2018-04-15T15:49:33.023Z,12.27
2018-04-15T15:52:00.390Z,11.60
2018-04-15T15:54:27.370Z,9.50
2018-04-15T15:56:54.570Z,19.13
2018-04-15T15:59:21.785Z,13.00
2018-04-15T16:01:49.018Z,10.63
2018-04-15T16:04:16.230Z,10.93
2018-04-15T16:06:43.482Z,11.73
2018-04-15T16:09:10.710Z,16.60
2018-04-15T16:11:37.927Z,13.03
2018-04-15T16:14:05.158Z,16.70
2018-04-15T16:16:32.400Z,14.50
2018-04-15T16:18:59.707Z,11.40
2018-04-15T16:21:26.910Z,12.63
2018-04-15T16:23:54.117Z,12.23
2018-04-15T16:26:21.332Z,8.97
2018-04-15T16:28:48.568Z,9.07
2018-04-15T16:31:15.788Z,12.40
2018-04-15T16:33:42.997Z,10.30
2018-04-15T16:36:10.208Z,12.83
2018-04-15T16:38:37.449Z,8.90
2018-04-15T16:41:04.650Z,9.97
2018-04-15T16:43:31.874Z,9.30
2018-04-15T16:45:59.107Z,10.83
2018-04-15T16:48:26.369Z,12.87
2018-04-15T16:50:53.619Z,12.30
2018-04-15T16:53:20.846Z,11.70
2018-04-15T16:55:48.068Z,7.70
2018-04-15T16:58:15.254Z,11.90
2018-04-15T17:00:42.480Z,10.60
2018-04-15T17:03:09.760Z,10.77
2018-04-15T17:05:37.068Z,10.90
2018-04-15T17:08:04.269Z,13.10
2018-04-15T17:10:31.497Z,12.87
2018-04-15T17:12:58.707Z,11.40
2018-04-15T17:15:25.985Z,10.33
2018-04-15T17:17:53.242Z,10.40
2018-04-15T17:20:20.463Z,13.03
2018-04-15T17:22:47.670Z,15.17
2018-04-15T17:25:14.873Z,10.40
2018-04-15T17:27:42.118Z,8.47
2018-04-15T17:30:09.307Z,7.90
2018-04-15T17:32:36.758Z,10.67
2018-04-15T17:35:04.004Z,16.43
2018-04-15T17:37:31.211Z,9.60
2018-04-15T17:40:00.194Z,13.07
2018-04-15T17:42:27.412Z,11.40
2018-04-15T17:44:54.630Z,13.60
2018-04-15T17:47:21.926Z,13.57
2018-04-15T17:49:49.149Z,12.83
2018-04-15T17:52:16.378Z,8.13
2018-04-15T17:54:43.609Z,13.37
2018-04-15T17:57:10.811Z,16.73
2018-04-15T17:59:38.058Z,14.23
2018-04-15T18:02:05.284Z,11.57
2018-04-15T18:04:32.544Z,8.60
2018-04-15T18:06:59.772Z,14.73
2018-04-15T18:09:27.024Z,12.80
2018-04-15T18:11:54.244Z,23.20
2018-04-15T18:14:21.464Z,25.03
2018-04-15T18:16:48.710Z,18.73
2018-04-15T18:19:15.908Z,15.43
2018-04-15T18:21:43.282Z,16.10
2018-04-15T18:24:10.735Z,32.03
2018-04-15T18:26:37.985Z,20.67
2018-04-15T18:29:05.254Z,25.03
2018-04-15T18:31:32.500Z,20.83
2018-04-15T18:33:59.812Z,17.73
2018-04-15T18:36:27.085Z,16.83
2018-04-15T18:38:54.398Z,19.10
2018-04-15T18:41:21.709Z,17.37
2018-04-15T18:43:49.019Z,14.10
2018-04-15T18:46:17.110Z,15.63
2018-04-15T18:48:44.427Z,21.90
2018-04-15T18:51:11.710Z,12.90
2018-04-15T18:53:39.022Z,11.33
2018-04-15T18:56:06.313Z,13.30
2018-04-15T18:58:33.639Z,13.10
2018-04-15T19:01:01.763Z,17.40
2018-04-15T19:03:29.074Z,11.57
2018-04-15T19:05:56.385Z,13.60
2018-04-15T19:08:23.710Z,13.80
2018-04-15T19:10:51.052Z,10.30
2018-04-15T19:13:18.343Z,13.83
2018-04-15T19:15:45.685Z,15.53
2018-04-15T19:18:12.996Z,10.13
2018-04-15T19:20:40.570Z,10.30
2018-04-15T19:23:07.867Z,10.23
2018-04-15T19:25:35.387Z,10.90
2018-04-15T19:28:02.723Z,9.50
2018-04-15T19:30:29.994Z,11.67
2018-04-15T19:32:57.327Z,9.83
2018-04-15T19:35:24.702Z,9.83
2018-04-15T19:37:52.213Z,8.80
2018-04-15T19:40:19.530Z,11.47
2018-04-15T19:42:46.889Z,9.70
2018-04-15T19:45:14.191Z,12.03
2018-04-15T19:47:41.584Z,13.20
2018-04-15T19:50:08.961Z,13.67
2018-04-15T19:52:36.245Z,13.47
2018-04-15T19:55:04.334Z,17.40
2018-04-15T19:57:31.695Z,10.60
2018-04-15T19:59:59.008Z,9.50
2018-04-15T20:02:26.271Z,13.40
2018-04-15T20:04:53.308Z,9.60
2018-04-15T20:07:20.642Z,8.73
2018-04-15T20:09:47.969Z,10.67
2018-04-15T20:12:15.286Z,12.57
2018-04-15T20:14:42.566Z,11.90
2018-04-15T20:17:09.878Z,10.83
2018-04-15T20:19:37.177Z,11.97
2018-04-15T20:22:04.606Z,9.77
2018-04-15T20:24:31.842Z,11.40
2018-04-15T20:26:59.082Z,8.23
2018-04-15T20:29:26.283Z,16.40
2018-04-15T20:31:53.500Z,24.07
2018-04-15T20:34:20.761Z,13.17
2018-04-15T20:36:47.975Z,10.87
2018-04-15T20:39:15.242Z,11.83
2018-04-15T20:41:42.429Z,10.07
2018-04-15T20:44:09.735Z,10.43
2018-04-15T20:46:36.940Z,9.20
2018-04-15T20:49:04.145Z,10.00
2018-04-15T20:51:31.379Z,10.60
2018-04-15T20:53:58.579Z,11.40
2018-04-15T20:56:25.834Z,15.50
2018-04-15T20:58:53.056Z,14.17
2018-04-15T21:01:20.091Z,10.67
2018-04-15T21:03:47.254Z,9.90
2018-04-15T21:06:14.239Z,10.67
2018-04-15T21:08:41.473Z,11.30
2018-04-15T21:11:08.859Z,9.53
2018-04-15T21:13:37.047Z,10.00
2018-04-15T21:16:04.269Z,17.00
2018-04-15T21:18:31.492Z,13.57
2018-04-15T21:20:58.735Z,12.23
2018-04-15T21:23:25.943Z,10.33
2018-04-15T21:25:53.138Z,10.63
2018-04-15T21:28:20.367Z,10.20
2018-04-15T21:30:47.575Z,16.37
2018-04-15T21:33:14.771Z,11.10
2018-04-15T21:35:42.085Z,12.03
2018-04-15T21:38:09.071Z,12.13
2018-04-15T21:40:36.286Z,12.87
2018-04-15T21:43:03.495Z,10.53
2018-04-15T21:45:30.795Z,23.13
2018-04-15T21:47:57.767Z,11.13
2018-04-15T21:50:24.988Z,12.73
2018-04-15T21:52:52.014Z,12.30
2018-04-15T21:55:19.235Z,9.77
2018-04-15T21:57:46.456Z,10.10
2018-04-15T22:00:13.425Z,10.63
2018-04-15T22:02:40.655Z,11.20
2018-04-15T22:05:07.618Z,12.00
2018-04-15T22:07:34.834Z,10.83
2018-04-15T22:10:02.045Z,11.60
2018-04-15T22:12:29.250Z,11.00
2018-04-15T22:14:56.440Z,10.93
2018-04-15T22:17:23.662Z,11.20
2018-04-15T22:19:50.870Z,11.37
2018-04-15T22:22:18.078Z,11.60
2018-04-15T22:24:45.282Z,12.00
2018-04-15T22:27:12.501Z,12.57
2018-04-15T22:29:39.681Z,13.70
2018-04-15T22:32:06.975Z,11.57
2018-04-15T22:34:34.315Z,10.87
2018-04-15T22:37:01.503Z,18.03
2018-04-15T22:39:28.709Z,13.10
2018-04-15T22:41:55.922Z,14.37
2018-04-15T22:44:23.133Z,11.43
2018-04-15T22:46:50.341Z,10.30
2018-04-15T22:49:22.386Z,13.27
2018-04-15T22:51:49.579Z,11.73
2018-04-15T22:54:16.774Z,14.00
2018-04-15T22:56:43.994Z,12.93
2018-04-15T22:59:10.960Z,11.57
2018-04-15T23:01:38.194Z,13.87
2018-04-15T23:04:05.438Z,16.53
2018-04-15T23:06:32.673Z,13.77
2018-04-15T23:08:59.868Z,14.70
2018-04-15T23:11:27.069Z,11.83
2018-04-15T23:13:54.267Z,11.47
2018-04-15T23:16:21.264Z,13.77
2018-04-15T23:18:48.456Z,11.97
2018-04-15T23:21:15.747Z,23.83
2018-04-15T23:23:42.959Z,12.87
2018-04-15T23:26:10.179Z,12.57
2018-04-15T23:28:37.403Z,10.80
2018-04-15T23:31:04.363Z,13.83
2018-04-15T23:33:31.588Z,13.83
2018-04-15T23:35:58.967Z,15.50
2018-04-15T23:38:26.177Z,12.87
2018-04-15T23:40:53.372Z,14.13
2018-04-15T23:43:20.575Z,16.83
2018-04-15T23:45:47.778Z,14.00
2018-04-15T23:48:14.974Z,12.83
2018-04-15T23:50:42.218Z,18.43
2018-04-15T23:53:09.409Z,14.40
2018-04-15T23:55:36.614Z,12.53
2018-04-15T23:58:03.830Z,12.47
